createdAt,value
2022-09-21T00:00:21.102Z,43.05
2022-09-21T00:02:48.000Z,45.35
2022-09-21T00:05:14.898Z,44.08
2022-09-21T00:07:41.728Z,42.85
2022-09-21T00:10:10.518Z,42.95
2022-09-21T00:12:40.045Z,44.25
2022-09-21T00:15:08.386Z,45.15
2022-09-21T00:17:36.736Z,44.85
2022-09-21T00:20:05.787Z,44.25
2022-09-21T00:22:32.933Z,44.30
2022-09-21T00:25:01.472Z,44.85
2022-09-21T00:27:30.444Z,44.80
2022-09-21T00:29:57.747Z,45.30
2022-09-21T00:32:25.270Z,45.58
2022-09-21T00:34:52.364Z,46.03
2022-09-21T00:37:19.590Z,47.28
2022-09-21T00:39:46.688Z,45.22
2022-09-21T00:42:18.395Z,44.22
2022-09-21T00:47:16.328Z,43.53
2022-09-21T00:49:49.558Z,43.10
2022-09-21T00:52:17.754Z,43.22
2022-09-21T00:54:49.497Z,43.92
2022-09-21T00:59:46.835Z,44.75
2022-09-21T01:02:15.486Z,46.03
2022-09-21T01:04:42.525Z,44.67
2022-09-21T01:07:14.170Z,44.95
2022-09-21T01:09:43.490Z,44.35
2022-09-21T01:12:26.746Z,44.88
2022-09-21T01:15:05.659Z,44.97
2022-09-21T01:17:45.088Z,44.38
2022-09-21T01:20:50.089Z,45.78
2022-09-21T01:23:39.990Z,45.55
2022-09-21T01:26:16.187Z,46.50
2022-09-21T01:29:13.669Z,46.67
2022-09-21T01:31:49.124Z,48.78
2022-09-21T01:34:21.800Z,47.55
2022-09-21T01:36:50.166Z,47.30
2022-09-21T01:39:20.744Z,46.95
2022-09-21T01:41:51.961Z,53.53
2022-09-21T01:44:23.326Z,46.10
2022-09-21T01:46:51.110Z,44.85
2022-09-21T01:49:21.751Z,43.83
2022-09-21T01:51:53.462Z,44.28
2022-09-21T01:54:24.952Z,43.80
2022-09-21T01:56:59.648Z,45.45
2022-09-21T01:59:35.278Z,44.72
2022-09-21T02:02:09.897Z,46.92
2022-09-21T02:04:37.925Z,58.35
2022-09-21T02:07:05.014Z,46.20
2022-09-21T02:09:32.810Z,46.80
2022-09-21T02:12:02.212Z,46.58
2022-09-21T02:14:33.423Z,46.90
2022-09-21T02:17:10.726Z,51.13
2022-09-21T02:19:45.435Z,43.72
2022-09-21T02:22:18.790Z,44.88
2022-09-21T02:24:48.295Z,44.03
2022-09-21T02:27:25.836Z,48.55
2022-09-21T02:30:02.100Z,43.50
2022-09-21T02:32:36.078Z,45.97
2022-09-21T02:35:09.304Z,40.85
2022-09-21T02:37:44.213Z,40.53
2022-09-21T02:40:22.440Z,41.33
2022-09-21T02:42:53.776Z,40.92
2022-09-21T02:45:25.630Z,40.85
2022-09-21T02:50:25.844Z,40.58
2022-09-21T02:52:54.664Z,40.28
2022-09-21T02:55:22.738Z,40.13
2022-09-21T02:57:50.233Z,40.05
2022-09-21T03:00:17.649Z,40.38
2022-09-21T03:02:46.209Z,40.53
2022-09-21T03:05:14.874Z,40.28
2022-09-21T03:07:41.939Z,40.13
2022-09-21T03:10:09.686Z,40.05
2022-09-21T03:12:37.110Z,40.38
2022-09-21T03:15:04.784Z,40.47
2022-09-21T03:17:31.731Z,40.10
2022-09-21T03:19:59.962Z,40.50
2022-09-21T03:22:27.585Z,40.25
2022-09-21T03:24:57.546Z,40.97
2022-09-21T03:27:24.602Z,40.22
2022-09-21T03:29:51.446Z,40.22
2022-09-21T03:32:18.385Z,40.08
2022-09-21T03:34:45.193Z,40.33
2022-09-21T03:37:13.448Z,39.90
2022-09-21T03:39:40.279Z,40.15
2022-09-21T03:42:09.195Z,40.60
2022-09-21T03:44:37.526Z,40.25
2022-09-21T03:47:06.695Z,40.05
2022-09-21T03:49:34.902Z,40.25
2022-09-21T03:52:02.344Z,40.25
2022-09-21T03:54:30.735Z,40.00
2022-09-21T03:56:57.621Z,41.08
2022-09-21T03:59:24.538Z,40.40
2022-09-21T04:01:51.446Z,40.20
2022-09-21T04:04:18.328Z,41.13
2022-09-21T04:06:46.259Z,40.35
2022-09-21T04:09:13.300Z,40.38
2022-09-21T04:11:41.835Z,40.10
2022-09-21T04:14:08.636Z,40.70
2022-09-21T04:16:35.480Z,40.35
2022-09-21T04:19:02.634Z,40.45
2022-09-21T04:21:30.104Z,40.35
2022-09-21T04:23:56.953Z,40.05
2022-09-21T04:26:25.823Z,40.13
2022-09-21T04:28:55.341Z,40.30
2022-09-21T04:31:23.683Z,40.05
2022-09-21T04:33:52.034Z,39.75
2022-09-21T04:36:20.018Z,40.60
2022-09-21T04:38:47.236Z,40.85
2022-09-21T04:41:15.031Z,40.22
2022-09-21T04:43:42.477Z,40.05
2022-09-21T04:46:12.886Z,40.35
2022-09-21T04:48:40.386Z,40.53
2022-09-21T04:51:08.103Z,40.53
2022-09-21T04:53:35.879Z,40.15
2022-09-21T04:56:04.893Z,40.08
2022-09-21T04:58:32.269Z,40.40
2022-09-21T05:00:59.413Z,40.30
2022-09-21T05:03:28.001Z,40.15
2022-09-21T05:05:56.651Z,40.25
2022-09-21T05:08:44.202Z,40.13
2022-09-21T05:11:13.290Z,40.30
2022-09-21T05:13:40.350Z,40.85
2022-09-21T05:16:07.283Z,40.97
2022-09-21T05:18:35.956Z,40.65
2022-09-21T05:21:04.238Z,40.50
2022-09-21T05:23:31.942Z,40.25
2022-09-21T05:25:59.707Z,41.50
2022-09-21T05:28:27.464Z,40.78
2022-09-21T05:31:16.595Z,40.58
2022-09-21T05:33:52.124Z,40.45
2022-09-21T05:36:41.315Z,40.60
2022-09-21T05:39:08.746Z,40.15
2022-09-21T05:41:36.450Z,40.28
2022-09-21T05:44:03.854Z,40.53
2022-09-21T05:46:39.198Z,40.45
2022-09-21T05:49:17.221Z,40.65
2022-09-21T05:51:54.640Z,40.75
2022-09-21T05:54:30.567Z,40.72
2022-09-21T05:57:05.511Z,40.95
2022-09-21T05:59:57.735Z,40.55
2022-09-21T06:05:33.914Z,41.35
2022-09-21T06:11:03.642Z,42.08
2022-09-21T06:22:32.497Z,42.95
2022-09-21T06:24:59.353Z,42.85
2022-09-21T06:30:28.700Z,43.47
2022-09-21T06:32:59.273Z,43.72
2022-09-21T06:35:26.542Z,44.17
2022-09-21T06:37:57.940Z,44.72
2022-09-21T06:40:24.881Z,45.20
2022-09-21T06:42:55.926Z,45.00
2022-09-21T06:45:22.788Z,44.85
2022-09-21T06:47:49.783Z,45.05
2022-09-21T06:50:16.715Z,44.85
2022-09-21T06:52:43.603Z,45.55
2022-09-21T06:55:12.325Z,46.10
2022-09-21T06:57:40.006Z,46.67
2022-09-21T07:00:10.263Z,46.00
2022-09-21T07:02:37.181Z,45.72
2022-09-21T07:05:04.731Z,46.50
2022-09-21T07:07:31.648Z,46.92
2022-09-21T07:10:07.564Z,46.15
2022-09-21T07:12:37.470Z,46.33
2022-09-21T07:15:06.069Z,46.63
2022-09-21T07:17:33.598Z,46.53
2022-09-21T07:20:01.964Z,46.97
2022-09-21T07:22:29.076Z,46.83
2022-09-21T07:24:56.559Z,46.95
2022-09-21T07:27:23.755Z,48.55
2022-09-21T07:29:52.034Z,46.60
2022-09-21T07:32:19.318Z,47.20
2022-09-21T07:34:46.667Z,47.25
2022-09-21T07:37:14.486Z,47.03
2022-09-21T07:39:41.331Z,47.20
2022-09-21T07:42:08.241Z,47.55
2022-09-21T07:44:35.140Z,48.00
2022-09-21T07:47:03.506Z,47.17
2022-09-21T07:49:30.517Z,47.33
2022-09-21T07:52:01.484Z,46.67
2022-09-21T07:54:31.022Z,46.72
2022-09-21T07:57:18.119Z,46.67
2022-09-21T07:59:45.917Z,47.33
2022-09-21T08:02:14.185Z,45.95
2022-09-21T08:04:41.085Z,45.83
2022-09-21T08:07:08.320Z,46.72
2022-09-21T08:09:35.188Z,47.08
2022-09-21T08:12:02.448Z,46.25
2022-09-21T08:14:29.503Z,46.47
2022-09-21T08:16:56.314Z,46.00
2022-09-21T08:19:27.691Z,46.58
2022-09-21T08:21:57.882Z,46.45
2022-09-21T08:24:26.853Z,46.20
2022-09-21T08:26:53.849Z,46.22
2022-09-21T08:29:20.979Z,46.80
2022-09-21T08:31:48.022Z,46.70
2022-09-21T08:34:16.218Z,46.50
2022-09-21T08:36:44.417Z,46.15
2022-09-21T08:39:11.290Z,46.45
2022-09-21T08:41:55.687Z,46.97
2022-09-21T08:44:26.723Z,47.05
2022-09-21T08:47:03.841Z,47.25
2022-09-21T08:49:35.241Z,47.72
2022-09-21T08:52:07.783Z,47.90
2022-09-21T08:54:41.931Z,48.10
2022-09-21T08:57:12.000Z,52.00
2022-09-21T08:59:42.912Z,53.83
2022-09-21T09:02:30.579Z,49.47
2022-09-21T09:05:03.394Z,49.88
2022-09-21T09:07:52.477Z,48.20
2022-09-21T09:10:36.529Z,48.30
2022-09-21T09:13:17.979Z,48.35
2022-09-21T09:15:52.845Z,48.00
2022-09-21T09:18:29.291Z,48.08
2022-09-21T09:21:00.836Z,48.90
2022-09-21T09:28:33.948Z,47.63
2022-09-21T09:31:05.225Z,47.55
2022-09-21T09:33:46.164Z,47.25
2022-09-21T09:36:14.121Z,46.95
2022-09-21T09:38:47.452Z,46.55
2022-09-21T09:41:39.093Z,47.10
2022-09-21T09:44:23.108Z,46.78
2022-09-21T09:47:00.176Z,46.78
2022-09-21T09:49:36.617Z,47.20
2022-09-21T09:52:05.395Z,47.28
2022-09-21T09:54:35.613Z,47.20
2022-09-21T09:57:04.233Z,47.53
2022-09-21T09:59:37.119Z,47.10
2022-09-21T10:02:06.492Z,47.33
2022-09-21T10:04:34.875Z,47.45
2022-09-21T10:07:02.014Z,47.80
2022-09-21T10:09:31.317Z,47.65
2022-09-21T10:12:01.850Z,47.60
2022-09-21T10:14:34.274Z,47.43
2022-09-21T10:17:06.278Z,47.88
2022-09-21T10:19:33.879Z,47.55
2022-09-21T10:22:02.724Z,47.72
2022-09-21T10:24:33.567Z,47.33
2022-09-21T10:27:10.359Z,47.83
2022-09-21T10:29:42.753Z,47.70
2022-09-21T10:32:22.138Z,48.25
2022-09-21T10:35:18.083Z,48.13
2022-09-21T10:37:48.409Z,48.50
2022-09-21T10:40:27.873Z,49.13
2022-09-21T10:42:58.761Z,48.78
2022-09-21T10:45:27.207Z,48.08
2022-09-21T10:47:57.216Z,48.15
2022-09-21T10:50:29.293Z,48.83
2022-09-21T10:53:00.699Z,48.55
2022-09-21T10:55:30.632Z,48.17
2022-09-21T10:57:59.996Z,50.15
2022-09-21T11:00:35.422Z,55.75
2022-09-21T11:03:28.436Z,56.83
2022-09-21T11:05:57.816Z,50.53
2022-09-21T11:08:31.102Z,60.38
2022-09-21T11:11:09.105Z,48.60
2022-09-21T11:13:42.150Z,62.75
2022-09-21T11:16:15.338Z,70.55
2022-09-21T11:18:51.936Z,49.20
2022-09-21T11:21:27.517Z,65.75
2022-09-21T11:24:03.783Z,63.10
2022-09-21T11:29:23.359Z,56.10
2022-09-21T11:32:06.224Z,57.50
2022-09-21T11:34:53.603Z,54.70
2022-09-21T11:37:37.218Z,61.55
2022-09-21T11:40:16.779Z,52.83
2022-09-21T11:42:55.975Z,48.47
2022-09-21T11:45:40.791Z,58.78
2022-09-21T11:48:20.020Z,48.13
2022-09-21T11:50:57.626Z,48.08
2022-09-21T11:53:38.152Z,48.35
2022-09-21T11:56:31.405Z,47.90
2022-09-21T11:59:08.149Z,48.03
2022-09-21T12:01:50.446Z,48.35
2022-09-21T12:04:37.549Z,48.75
2022-09-21T12:07:17.786Z,48.58
2022-09-21T12:10:16.847Z,48.45
2022-09-21T12:12:50.373Z,48.75
2022-09-21T12:15:24.517Z,48.60
2022-09-21T12:18:00.671Z,48.65
2022-09-21T12:20:36.237Z,48.50
2022-09-21T12:23:09.049Z,48.47
2022-09-21T12:25:41.310Z,49.05
2022-09-21T12:28:17.521Z,48.85
2022-09-21T12:30:48.057Z,48.58
2022-09-21T12:33:22.388Z,48.95
2022-09-21T12:35:55.071Z,48.95
2022-09-21T12:38:27.628Z,48.15
2022-09-21T12:41:04.252Z,48.20
2022-09-21T12:43:37.126Z,48.65
2022-09-21T12:46:11.229Z,48.28
2022-09-21T12:48:40.284Z,47.90
2022-09-21T12:51:13.662Z,48.17
2022-09-21T12:53:49.878Z,48.05
2022-09-21T12:56:29.412Z,48.08
2022-09-21T12:59:17.751Z,48.22
2022-09-21T13:01:56.305Z,47.92
2022-09-21T13:04:41.944Z,48.58
2022-09-21T13:07:44.155Z,48.15
2022-09-21T13:10:18.856Z,47.88
2022-09-21T13:12:53.091Z,47.83
2022-09-21T13:15:25.342Z,48.38
2022-09-21T13:18:00.066Z,48.50
2022-09-21T13:20:34.647Z,48.25
2022-09-21T13:23:02.382Z,48.08
2022-09-21T13:25:31.175Z,48.55
2022-09-21T13:28:13.476Z,48.25
2022-09-21T13:30:42.640Z,48.65
2022-09-21T13:33:46.583Z,48.65
2022-09-21T13:36:33.967Z,48.35
2022-09-21T13:39:18.917Z,50.83
2022-09-21T13:42:02.483Z,48.83
2022-09-21T13:44:42.375Z,48.15
2022-09-21T13:47:12.012Z,48.03
2022-09-21T13:49:43.521Z,47.85
2022-09-21T13:52:30.614Z,48.03
2022-09-21T13:55:00.132Z,48.08
2022-09-21T13:57:34.987Z,48.15
2022-09-21T14:00:35.988Z,48.15
2022-09-21T14:03:06.771Z,48.10
2022-09-21T14:05:39.755Z,47.63
2022-09-21T14:08:21.235Z,47.78
2022-09-21T14:10:53.150Z,47.35
2022-09-21T14:13:32.366Z,47.75
2022-09-21T14:16:45.672Z,48.30
2022-09-21T14:19:50.097Z,58.35
2022-09-21T14:22:44.426Z,57.67
2022-09-21T14:25:30.841Z,52.85
2022-09-21T14:28:12.118Z,76.97
2022-09-21T14:30:39.939Z,71.88
2022-09-21T14:33:22.681Z,98.03
2022-09-21T14:35:51.960Z,69.75
2022-09-21T14:38:22.791Z,47.55
2022-09-21T14:40:52.830Z,47.63
2022-09-21T14:43:25.575Z,47.60
2022-09-21T14:46:17.201Z,47.65
2022-09-21T14:51:23.859Z,47.40
2022-09-21T14:54:10.265Z,47.60
2022-09-21T14:57:04.145Z,49.00
2022-09-21T14:59:48.157Z,48.47
2022-09-21T15:02:21.201Z,73.32
2022-09-21T15:05:03.890Z,84.60
2022-09-21T15:08:00.349Z,100.05
2022-09-21T15:10:52.995Z,97.50
2022-09-21T15:13:51.836Z,107.78
2022-09-21T15:16:26.321Z,72.53
2022-09-21T15:19:05.921Z,55.50
2022-09-21T15:21:33.345Z,52.80
2022-09-21T15:24:16.696Z,58.03
2022-09-21T15:26:44.324Z,60.88
2022-09-21T15:29:24.479Z,61.25
2022-09-21T15:31:51.882Z,61.30
2022-09-21T15:34:18.947Z,61.75
2022-09-21T15:36:52.219Z,54.70
2022-09-21T15:39:24.815Z,49.80
2022-09-21T15:42:08.313Z,49.03
2022-09-21T15:44:38.389Z,48.05
2022-09-21T15:47:09.539Z,47.70
2022-09-21T15:49:41.561Z,47.30
2022-09-21T15:52:24.646Z,47.25
2022-09-21T15:54:56.507Z,47.22
2022-09-21T15:57:35.956Z,46.92
2022-09-21T16:00:17.152Z,47.15
2022-09-21T16:03:02.323Z,47.20
2022-09-21T16:05:29.633Z,47.15
2022-09-21T16:08:05.976Z,46.85
2022-09-21T16:10:39.204Z,46.97
2022-09-21T16:13:30.919Z,49.90
2022-09-21T16:21:15.043Z,47.05
2022-09-21T16:23:42.255Z,46.55
2022-09-21T16:26:19.183Z,47.35
2022-09-21T16:28:46.329Z,47.45
2022-09-21T16:31:30.660Z,47.25
2022-09-21T16:34:04.811Z,46.90
2022-09-21T16:36:38.068Z,47.17
2022-09-21T16:39:12.843Z,47.20
2022-09-21T16:41:47.305Z,47.00
2022-09-21T16:44:20.657Z,47.22
2022-09-21T16:46:52.817Z,46.53
2022-09-21T16:49:21.778Z,46.67
2022-09-21T16:51:49.583Z,46.65
2022-09-21T16:54:17.983Z,46.95
2022-09-21T16:56:46.456Z,47.38
2022-09-21T16:59:16.337Z,48.80
2022-09-21T17:01:43.773Z,46.95
2022-09-21T17:04:13.467Z,46.65
2022-09-21T17:06:40.621Z,47.13
2022-09-21T17:09:20.872Z,46.50
2022-09-21T17:11:49.184Z,46.53
2022-09-21T17:14:16.254Z,45.92
2022-09-21T17:16:47.792Z,46.42
2022-09-21T17:21:45.556Z,46.47
2022-09-21T17:24:27.530Z,49.38
2022-09-21T17:27:00.310Z,47.13
2022-09-21T17:29:28.308Z,49.40
2022-09-21T17:31:57.955Z,46.53
2022-09-21T17:34:27.599Z,46.33
2022-09-21T17:36:55.415Z,45.63
2022-09-21T17:39:23.679Z,45.85
2022-09-21T17:41:53.311Z,46.15
2022-09-21T17:44:39.818Z,46.38
2022-09-21T17:47:13.808Z,47.35
2022-09-21T17:49:42.687Z,46.67
2022-09-21T17:52:34.295Z,46.10
2022-09-21T17:55:05.833Z,46.42
2022-09-21T17:57:46.000Z,45.80
2022-09-21T18:00:18.494Z,45.83
2022-09-21T18:02:46.166Z,45.35
2022-09-21T18:05:24.006Z,45.15
2022-09-21T18:07:51.356Z,44.72
2022-09-21T18:10:19.125Z,44.78
2022-09-21T18:13:14.212Z,44.65
2022-09-21T18:15:54.338Z,44.35
2022-09-21T18:18:35.197Z,44.42
2022-09-21T18:21:09.035Z,44.13
2022-09-21T18:23:45.043Z,44.28
2022-09-21T18:26:16.537Z,44.17
2022-09-21T18:28:45.796Z,44.03
2022-09-21T18:31:32.691Z,43.83
2022-09-21T18:34:13.904Z,43.75
2022-09-21T18:36:48.599Z,43.95
2022-09-21T18:39:24.758Z,44.25
2022-09-21T18:42:09.194Z,44.05
2022-09-21T18:44:44.673Z,43.75
2022-09-21T18:47:19.473Z,43.97
2022-09-21T18:49:54.808Z,43.75
2022-09-21T18:52:39.606Z,43.75
2022-09-21T18:55:23.705Z,44.08
2022-09-21T18:57:51.407Z,44.03
2022-09-21T19:00:21.581Z,43.92
2022-09-21T19:03:15.342Z,43.92
2022-09-21T19:05:39.704Z,43.75
2022-09-21T19:08:16.000Z,43.90
2022-09-21T19:10:50.410Z,43.85
2022-09-21T19:13:32.573Z,43.88
2022-09-21T19:16:11.617Z,44.22
2022-09-21T19:18:46.413Z,43.35
2022-09-21T19:21:27.253Z,43.50
2022-09-21T19:24:06.291Z,43.60
2022-09-21T19:26:40.371Z,43.53
2022-09-21T19:29:28.112Z,43.60
2022-09-21T19:31:55.186Z,43.55
2022-09-21T19:34:22.451Z,43.88
2022-09-21T19:36:49.770Z,43.90
2022-09-21T19:39:19.386Z,43.35
2022-09-21T19:42:00.415Z,43.28
2022-09-21T19:44:42.033Z,44.25
2022-09-21T19:47:17.489Z,43.88
2022-09-21T19:49:48.807Z,44.17
2022-09-21T19:52:17.935Z,44.08
2022-09-21T19:55:09.989Z,44.60
2022-09-21T19:57:56.210Z,44.70
2022-09-21T20:00:24.118Z,43.78
2022-09-21T20:03:01.444Z,43.35
2022-09-21T20:05:37.250Z,43.25
2022-09-21T20:08:11.131Z,42.83
2022-09-21T20:11:01.936Z,42.63
2022-09-21T20:13:49.498Z,43.05
2022-09-21T20:16:31.235Z,42.47
2022-09-21T20:21:35.749Z,42.60
2022-09-21T20:24:11.489Z,42.67
2022-09-21T20:26:40.044Z,42.72
2022-09-21T20:29:08.335Z,43.30
2022-09-21T20:31:35.337Z,42.58
2022-09-21T20:34:02.149Z,42.45
2022-09-21T20:36:29.079Z,42.83
2022-09-21T20:38:57.784Z,42.70
2022-09-21T20:41:25.055Z,42.47
2022-09-21T20:43:53.218Z,42.55
2022-09-21T20:46:20.351Z,42.53
2022-09-21T20:48:47.306Z,42.15
2022-09-21T20:51:14.173Z,42.92
2022-09-21T20:53:41.293Z,42.28
2022-09-21T20:56:08.247Z,42.33
2022-09-21T20:58:35.783Z,42.53
2022-09-21T21:01:05.472Z,42.80
2022-09-21T21:03:32.862Z,42.45
2022-09-21T21:06:10.631Z,42.33
2022-09-21T21:08:37.615Z,42.15
2022-09-21T21:11:04.686Z,42.08
2022-09-21T21:13:31.845Z,41.85
2022-09-21T21:16:00.239Z,42.03
2022-09-21T21:18:28.506Z,42.05
2022-09-21T21:20:55.326Z,42.15
2022-09-21T21:23:22.145Z,41.75
2022-09-21T21:25:49.057Z,41.85
2022-09-21T21:28:15.932Z,41.92
2022-09-21T21:30:42.836Z,41.88
2022-09-21T21:33:10.166Z,41.75
2022-09-21T21:35:38.653Z,41.85
2022-09-21T21:38:05.466Z,41.50
2022-09-21T21:40:32.395Z,41.75
2022-09-21T21:42:59.317Z,41.92
2022-09-21T21:45:26.150Z,42.35
2022-09-21T21:47:54.365Z,41.55
2022-09-21T21:50:21.272Z,41.85
2022-09-21T21:52:50.106Z,41.35
2022-09-21T21:55:17.161Z,41.83
2022-09-21T21:57:44.019Z,41.90
2022-09-21T22:00:12.403Z,41.63
2022-09-21T22:02:39.261Z,41.53
2022-09-21T22:05:07.075Z,41.45
2022-09-21T22:07:33.994Z,41.47
2022-09-21T22:10:03.035Z,41.35
2022-09-21T22:12:29.902Z,41.95
2022-09-21T22:14:56.747Z,41.33
2022-09-21T22:17:23.779Z,41.47
2022-09-21T22:19:51.470Z,41.42
2022-09-21T22:22:18.262Z,41.35
2022-09-21T22:24:45.238Z,41.15
2022-09-21T22:27:13.440Z,41.05
2022-09-21T22:29:40.647Z,41.25
2022-09-21T22:32:07.495Z,41.47
2022-09-21T22:34:34.317Z,41.25
2022-09-21T22:37:01.126Z,41.30
2022-09-21T22:39:27.990Z,41.40
2022-09-21T22:41:54.878Z,41.47
2022-09-21T22:44:23.062Z,41.25
2022-09-21T22:46:49.920Z,41.45
2022-09-21T22:49:16.732Z,41.25
2022-09-21T22:51:43.769Z,41.45
2022-09-21T22:54:10.590Z,41.25
2022-09-21T22:56:37.774Z,41.45
2022-09-21T22:59:05.570Z,41.05
2022-09-21T23:01:35.672Z,41.35
2022-09-21T23:04:04.581Z,41.28
2022-09-21T23:06:33.470Z,41.03
2022-09-21T23:09:02.355Z,41.22
2022-09-21T23:11:31.224Z,40.97
2022-09-21T23:13:59.453Z,41.65
2022-09-21T23:16:28.076Z,41.13
2022-09-21T23:18:57.782Z,40.95
2022-09-21T23:21:26.431Z,41.00
2022-09-21T23:23:55.742Z,41.13
2022-09-21T23:26:24.281Z,41.15
2022-09-21T23:28:53.416Z,40.75
2022-09-21T23:31:21.112Z,41.50
2022-09-21T23:33:49.539Z,41.03
2022-09-21T23:36:19.806Z,40.90
2022-09-21T23:38:47.773Z,40.92
2022-09-21T23:41:17.712Z,41.08
2022-09-21T23:43:45.402Z,40.75
2022-09-21T23:46:15.058Z,40.88
2022-09-21T23:48:42.857Z,41.10
2022-09-21T23:51:10.178Z,41.05
2022-09-21T23:53:39.201Z,40.92
2022-09-21T23:56:07.538Z,40.97
2022-09-21T23:58:34.544Z,40.65
